sensor_id;sensor_type;location;lat;lon;timestamp;P1;durP1;ratioP1;P2;durP2;ratioP2
43070;SDS011;36278;47.952;21.714;2023-02-18T00:01:16;34.30;;;24.00;;
43070;SDS011;36278;47.952;21.714;2023-02-18T00:03:43;31.30;;;22.77;;
43070;SDS011;36278;47.952;21.714;2023-02-18T00:06:13;33.77;;;23.63;;
43070;SDS011;36278;47.952;21.714;2023-02-18T00:08:40;36.57;;;24.60;;
43070;SDS011;36278;47.952;21.714;2023-02-18T00:11:07;32.53;;;23.97;;
43070;SDS011;36278;47.952;21.714;2023-02-18T00:13:33;33.60;;;22.93;;
43070;SDS011;36278;47.952;21.714;2023-02-18T00:16:03;35.03;;;24.40;;
43070;SDS011;36278;47.952;21.714;2023-02-18T00:18:32;33.80;;;24.67;;
43070;SDS011;36278;47.952;21.714;2023-02-18T00:21:02;32.57;;;24.17;;
43070;SDS011;36278;47.952;21.714;2023-02-18T00:23:38;36.00;;;24.23;;
43070;SDS011;36278;47.952;21.714;2023-02-18T00:26:04;31.40;;;24.17;;
43070;SDS011;36278;47.952;21.714;2023-02-18T00:28:32;36.30;;;24.67;;
43070;SDS011;36278;47.952;21.714;2023-02-18T00:30:57;35.40;;;24.50;;
43070;SDS011;36278;47.952;21.714;2023-02-18T00:33:23;36.23;;;25.27;;
43070;SDS011;36278;47.952;21.714;2023-02-18T00:35:48;36.17;;;24.90;;
43070;SDS011;36278;47.952;21.714;2023-02-18T00:38:15;35.10;;;25.03;;
43070;SDS011;36278;47.952;21.714;2023-02-18T00:40:40;32.57;;;24.70;;
43070;SDS011;36278;47.952;21.714;2023-02-18T00:43:07;35.40;;;25.13;;
43070;SDS011;36278;47.952;21.714;2023-02-18T00:45:33;36.70;;;24.70;;
43070;SDS011;36278;47.952;21.714;2023-02-18T00:47:58;37.90;;;25.47;;
43070;SDS011;36278;47.952;21.714;2023-02-18T00:50:24;32.80;;;24.93;;
43070;SDS011;36278;47.952;21.714;2023-02-18T00:52:49;38.27;;;25.43;;
43070;SDS011;36278;47.952;21.714;2023-02-18T00:55:14;35.77;;;25.27;;
43070;SDS011;36278;47.952;21.714;2023-02-18T00:57:40;37.80;;;26.13;;
43070;SDS011;36278;47.952;21.714;2023-02-18T01:00:06;36.57;;;25.87;;
43070;SDS011;36278;47.952;21.714;2023-02-18T01:02:32;37.23;;;27.00;;
43070;SDS011;36278;47.952;21.714;2023-02-18T01:04:58;38.20;;;27.10;;
43070;SDS011;36278;47.952;21.714;2023-02-18T01:07:24;41.13;;;28.40;;
43070;SDS011;36278;47.952;21.714;2023-02-18T01:09:49;36.03;;;27.90;;
43070;SDS011;36278;47.952;21.714;2023-02-18T01:12:15;36.43;;;26.33;;
43070;SDS011;36278;47.952;21.714;2023-02-18T01:14:41;39.97;;;27.27;;
43070;SDS011;36278;47.952;21.714;2023-02-18T01:17:06;37.73;;;28.23;;
43070;SDS011;36278;47.952;21.714;2023-02-18T01:19:32;39.23;;;28.80;;
43070;SDS011;36278;47.952;21.714;2023-02-18T01:21:57;37.50;;;26.60;;
43070;SDS011;36278;47.952;21.714;2023-02-18T01:24:23;35.07;;;26.97;;
43070;SDS011;36278;47.952;21.714;2023-02-18T01:26:48;36.90;;;27.10;;
43070;SDS011;36278;47.952;21.714;2023-02-18T01:29:14;40.50;;;28.53;;
43070;SDS011;36278;47.952;21.714;2023-02-18T01:31:39;37.93;;;28.50;;
43070;SDS011;36278;47.952;21.714;2023-02-18T01:34:04;38.23;;;28.40;;
43070;SDS011;36278;47.952;21.714;2023-02-18T01:36:30;40.57;;;28.80;;
43070;SDS011;36278;47.952;21.714;2023-02-18T01:38:55;38.77;;;29.00;;
43070;SDS011;36278;47.952;21.714;2023-02-18T01:41:21;37.33;;;28.47;;
43070;SDS011;36278;47.952;21.714;2023-02-18T01:43:46;36.60;;;28.20;;
43070;SDS011;36278;47.952;21.714;2023-02-18T01:46:16;36.90;;;27.87;;
43070;SDS011;36278;47.952;21.714;2023-02-18T01:51:22;38.40;;;27.60;;
43070;SDS011;36278;47.952;21.714;2023-02-18T01:59:27;37.70;;;28.27;;
43070;SDS011;36278;47.952;21.714;2023-02-18T02:02:04;37.80;;;27.53;;
43070;SDS011;36278;47.952;21.714;2023-02-18T02:04:32;37.00;;;27.47;;
43070;SDS011;36278;47.952;21.714;2023-02-18T02:06:58;39.27;;;26.67;;
43070;SDS011;36278;47.952;21.714;2023-02-18T02:09:25;36.30;;;26.83;;
43070;SDS011;36278;47.952;21.714;2023-02-18T02:25:09;27.40;;;18.90;;
43070;SDS011;36278;47.952;21.714;2023-02-18T02:31:02;24.70;;;15.50;;
43070;SDS011;36278;47.952;21.714;2023-02-18T02:33:52;19.10;;;13.73;;
43070;SDS011;36278;47.952;21.714;2023-02-18T02:37:03;19.93;;;13.17;;
43070;SDS011;36278;47.952;21.714;2023-02-18T02:50:53;23.17;;;14.07;;
43070;SDS011;36278;47.952;21.714;2023-02-18T02:53:23;20.50;;;14.20;;
43070;SDS011;36278;47.952;21.714;2023-02-18T02:55:51;17.97;;;12.10;;
43070;SDS011;36278;47.952;21.714;2023-02-18T02:58:19;20.13;;;13.67;;
43070;SDS011;36278;47.952;21.714;2023-02-18T03:05:51;18.40;;;13.47;;
43070;SDS011;36278;47.952;21.714;2023-02-18T03:11:10;19.13;;;14.33;;
43070;SDS011;36278;47.952;21.714;2023-02-18T03:16:35;17.23;;;13.53;;
43070;SDS011;36278;47.952;21.714;2023-02-18T03:19:19;15.70;;;12.43;;
43070;SDS011;36278;47.952;21.714;2023-02-18T03:21:57;20.67;;;13.17;;
43070;SDS011;36278;47.952;21.714;2023-02-18T03:24:31;19.30;;;13.77;;
43070;SDS011;36278;47.952;21.714;2023-02-18T03:27:05;17.93;;;12.27;;
43070;SDS011;36278;47.952;21.714;2023-02-18T03:29:35;17.47;;;12.77;;
43070;SDS011;36278;47.952;21.714;2023-02-18T03:32:04;18.20;;;13.17;;
43070;SDS011;36278;47.952;21.714;2023-02-18T03:34:33;17.13;;;12.23;;
43070;SDS011;36278;47.952;21.714;2023-02-18T03:37:04;16.02;;;13.25;;
43070;SDS011;36278;47.952;21.714;2023-02-18T03:39:33;17.17;;;12.43;;
43070;SDS011;36278;47.952;21.714;2023-02-18T03:42:00;16.80;;;11.67;;
43070;SDS011;36278;47.952;21.714;2023-02-18T03:44:26;15.93;;;12.10;;
43070;SDS011;36278;47.952;21.714;2023-02-18T03:46:51;18.57;;;12.00;;
43070;SDS011;36278;47.952;21.714;2023-02-18T03:49:17;16.80;;;12.50;;
43070;SDS011;36278;47.952;21.714;2023-02-18T03:51:43;17.67;;;11.87;;
43070;SDS011;36278;47.952;21.714;2023-02-18T03:54:09;17.63;;;11.90;;
43070;SDS011;36278;47.952;21.714;2023-02-18T03:56:35;14.40;;;11.40;;
43070;SDS011;36278;47.952;21.714;2023-02-18T03:59:01;15.40;;;11.90;;
43070;SDS011;36278;47.952;21.714;2023-02-18T04:01:28;18.43;;;12.50;;
43070;SDS011;36278;47.952;21.714;2023-02-18T04:03:54;15.57;;;11.63;;
43070;SDS011;36278;47.952;21.714;2023-02-18T04:06:20;17.27;;;12.03;;
43070;SDS011;36278;47.952;21.714;2023-02-18T04:08:46;16.67;;;11.43;;
43070;SDS011;36278;47.952;21.714;2023-02-18T04:11:12;15.83;;;11.80;;
43070;SDS011;36278;47.952;21.714;2023-02-18T04:13:37;16.17;;;11.30;;
43070;SDS011;36278;47.952;21.714;2023-02-18T04:16:03;15.10;;;11.70;;
43070;SDS011;36278;47.952;21.714;2023-02-18T04:18:29;16.43;;;11.63;;
43070;SDS011;36278;47.952;21.714;2023-02-18T04:20:54;15.17;;;11.90;;
43070;SDS011;36278;47.952;21.714;2023-02-18T04:23:20;18.00;;;11.67;;
43070;SDS011;36278;47.952;21.714;2023-02-18T04:25:45;14.00;;;10.93;;
43070;SDS011;36278;47.952;21.714;2023-02-18T04:28:12;15.70;;;11.10;;
43070;SDS011;36278;47.952;21.714;2023-02-18T04:30:39;17.07;;;11.90;;
43070;SDS011;36278;47.952;21.714;2023-02-18T04:33:05;13.57;;;10.50;;
43070;SDS011;36278;47.952;21.714;2023-02-18T04:35:31;13.73;;;10.70;;
43070;SDS011;36278;47.952;21.714;2023-02-18T04:37:56;14.03;;;11.03;;
43070;SDS011;36278;47.952;21.714;2023-02-18T04:40:21;12.50;;;10.00;;
43070;SDS011;36278;47.952;21.714;2023-02-18T04:42:49;13.50;;;9.53;;
43070;SDS011;36278;47.952;21.714;2023-02-18T04:45:15;13.20;;;10.00;;
43070;SDS011;36278;47.952;21.714;2023-02-18T04:47:40;12.93;;;9.67;;
43070;SDS011;36278;47.952;21.714;2023-02-18T04:50:06;12.93;;;9.53;;
43070;SDS011;36278;47.952;21.714;2023-02-18T04:52:32;12.47;;;9.10;;
43070;SDS011;36278;47.952;21.714;2023-02-18T04:54:57;17.87;;;10.47;;
43070;SDS011;36278;47.952;21.714;2023-02-18T04:57:23;13.40;;;9.00;;
43070;SDS011;36278;47.952;21.714;2023-02-18T04:59:48;18.23;;;9.33;;
43070;SDS011;36278;47.952;21.714;2023-02-18T05:02:14;12.03;;;9.23;;
43070;SDS011;36278;47.952;21.714;2023-02-18T05:04:39;16.47;;;9.97;;
43070;SDS011;36278;47.952;21.714;2023-02-18T05:07:05;13.23;;;9.23;;
43070;SDS011;36278;47.952;21.714;2023-02-18T05:09:30;11.37;;;8.47;;
43070;SDS011;36278;47.952;21.714;2023-02-18T05:11:56;13.23;;;8.27;;
43070;SDS011;36278;47.952;21.714;2023-02-18T05:14:21;12.27;;;8.17;;
43070;SDS011;36278;47.952;21.714;2023-02-18T05:16:46;10.50;;;8.13;;
43070;SDS011;36278;47.952;21.714;2023-02-18T05:19:12;10.87;;;7.83;;
43070;SDS011;36278;47.952;21.714;2023-02-18T05:21:39;9.60;;;7.50;;
43070;SDS011;36278;47.952;21.714;2023-02-18T05:24:04;11.17;;;8.10;;
43070;SDS011;36278;47.952;21.714;2023-02-18T05:26:30;11.83;;;7.50;;
43070;SDS011;36278;47.952;21.714;2023-02-18T05:28:56;11.20;;;7.03;;
43070;SDS011;36278;47.952;21.714;2023-02-18T05:31:21;9.50;;;6.70;;
43070;SDS011;36278;47.952;21.714;2023-02-18T05:33:47;11.40;;;6.30;;
43070;SDS011;36278;47.952;21.714;2023-02-18T05:36:12;10.63;;;6.93;;
43070;SDS011;36278;47.952;21.714;2023-02-18T05:38:38;9.90;;;6.93;;
43070;SDS011;36278;47.952;21.714;2023-02-18T05:41:03;10.00;;;6.80;;
43070;SDS011;36278;47.952;21.714;2023-02-18T05:43:29;10.73;;;7.23;;
43070;SDS011;36278;47.952;21.714;2023-02-18T05:45:55;8.83;;;6.43;;
43070;SDS011;36278;47.952;21.714;2023-02-18T05:48:20;8.30;;;6.03;;
43070;SDS011;36278;47.952;21.714;2023-02-18T05:50:45;12.37;;;5.97;;
43070;SDS011;36278;47.952;21.714;2023-02-18T05:53:11;7.83;;;5.43;;
43070;SDS011;36278;47.952;21.714;2023-02-18T05:55:37;8.67;;;6.40;;
43070;SDS011;36278;47.952;21.714;2023-02-18T05:58:03;9.83;;;5.93;;
43070;SDS011;36278;47.952;21.714;2023-02-18T06:00:30;10.27;;;5.63;;
43070;SDS011;36278;47.952;21.714;2023-02-18T06:02:56;7.90;;;5.93;;
43070;SDS011;36278;47.952;21.714;2023-02-18T06:05:23;6.83;;;4.87;;
43070;SDS011;36278;47.952;21.714;2023-02-18T06:07:48;8.43;;;5.67;;
43070;SDS011;36278;47.952;21.714;2023-02-18T06:10:14;10.07;;;5.60;;
43070;SDS011;36278;47.952;21.714;2023-02-18T06:12:39;9.47;;;6.47;;
43070;SDS011;36278;47.952;21.714;2023-02-18T06:15:05;9.93;;;6.27;;
43070;SDS011;36278;47.952;21.714;2023-02-18T06:17:31;10.87;;;6.97;;
43070;SDS011;36278;47.952;21.714;2023-02-18T06:19:57;10.70;;;6.87;;
43070;SDS011;36278;47.952;21.714;2023-02-18T06:22:22;9.37;;;7.20;;
43070;SDS011;36278;47.952;21.714;2023-02-18T06:24:48;10.07;;;7.60;;
43070;SDS011;36278;47.952;21.714;2023-02-18T06:27:13;9.70;;;6.70;;
43070;SDS011;36278;47.952;21.714;2023-02-18T06:29:39;9.03;;;6.90;;
43070;SDS011;36278;47.952;21.714;2023-02-18T06:32:04;8.60;;;6.80;;
43070;SDS011;36278;47.952;21.714;2023-02-18T06:34:30;17.60;;;8.50;;
43070;SDS011;36278;47.952;21.714;2023-02-18T06:36:55;11.83;;;8.40;;
43070;SDS011;36278;47.952;21.714;2023-02-18T06:39:21;14.03;;;8.70;;
43070;SDS011;36278;47.952;21.714;2023-02-18T06:41:46;11.07;;;8.73;;
43070;SDS011;36278;47.952;21.714;2023-02-18T06:44:11;12.83;;;9.00;;
43070;SDS011;36278;47.952;21.714;2023-02-18T06:46:39;11.20;;;8.03;;
43070;SDS011;36278;47.952;21.714;2023-02-18T06:49:04;13.13;;;7.57;;
43070;SDS011;36278;47.952;21.714;2023-02-18T06:51:30;9.73;;;6.57;;
43070;SDS011;36278;47.952;21.714;2023-02-18T06:53:55;12.83;;;8.03;;
43070;SDS011;36278;47.952;21.714;2023-02-18T06:56:21;10.23;;;7.27;;
43070;SDS011;36278;47.952;21.714;2023-02-18T06:58:46;9.70;;;7.77;;
43070;SDS011;36278;47.952;21.714;2023-02-18T07:01:12;11.87;;;8.07;;
43070;SDS011;36278;47.952;21.714;2023-02-18T07:03:37;10.37;;;8.00;;
43070;SDS011;36278;47.952;21.714;2023-02-18T07:06:03;16.23;;;9.40;;
43070;SDS011;36278;47.952;21.714;2023-02-18T07:08:28;10.73;;;8.70;;
43070;SDS011;36278;47.952;21.714;2023-02-18T07:10:55;14.67;;;9.20;;
43070;SDS011;36278;47.952;21.714;2023-02-18T07:13:21;13.03;;;9.13;;
43070;SDS011;36278;47.952;21.714;2023-02-18T07:15:46;11.67;;;9.47;;
43070;SDS011;36278;47.952;21.714;2023-02-18T07:18:11;12.17;;;10.67;;
43070;SDS011;36278;47.952;21.714;2023-02-18T07:20:38;13.53;;;11.30;;
43070;SDS011;36278;47.952;21.714;2023-02-18T07:23:04;14.47;;;11.57;;
43070;SDS011;36278;47.952;21.714;2023-02-18T07:25:30;16.90;;;12.20;;
43070;SDS011;36278;47.952;21.714;2023-02-18T07:27:55;15.40;;;11.60;;
43070;SDS011;36278;47.952;21.714;2023-02-18T07:30:20;14.97;;;11.30;;
43070;SDS011;36278;47.952;21.714;2023-02-18T07:32:46;14.90;;;11.77;;
43070;SDS011;36278;47.952;21.714;2023-02-18T07:35:12;17.60;;;12.93;;
43070;SDS011;36278;47.952;21.714;2023-02-18T07:37:42;17.13;;;11.93;;
43070;SDS011;36278;47.952;21.714;2023-02-18T07:40:09;15.90;;;12.50;;
43070;SDS011;36278;47.952;21.714;2023-02-18T07:42:37;15.57;;;11.97;;
43070;SDS011;36278;47.952;21.714;2023-02-18T07:45:02;15.43;;;12.17;;
43070;SDS011;36278;47.952;21.714;2023-02-18T07:47:28;17.13;;;12.60;;
43070;SDS011;36278;47.952;21.714;2023-02-18T07:49:53;18.13;;;13.53;;
43070;SDS011;36278;47.952;21.714;2023-02-18T07:52:19;21.13;;;14.90;;
43070;SDS011;36278;47.952;21.714;2023-02-18T07:54:44;20.47;;;14.10;;
43070;SDS011;36278;47.952;21.714;2023-02-18T07:57:10;22.87;;;16.20;;
43070;SDS011;36278;47.952;21.714;2023-02-18T07:59:35;20.87;;;15.93;;
43070;SDS011;36278;47.952;21.714;2023-02-18T08:02:01;22.40;;;16.03;;
43070;SDS011;36278;47.952;21.714;2023-02-18T08:04:26;20.00;;;14.27;;
43070;SDS011;36278;47.952;21.714;2023-02-18T08:06:52;17.63;;;11.80;;
43070;SDS011;36278;47.952;21.714;2023-02-18T08:09:17;19.27;;;11.53;;
43070;SDS011;36278;47.952;21.714;2023-02-18T08:11:43;19.57;;;13.67;;
43070;SDS011;36278;47.952;21.714;2023-02-18T08:14:09;17.30;;;12.50;;
43070;SDS011;36278;47.952;21.714;2023-02-18T08:16:34;15.33;;;10.80;;
43070;SDS011;36278;47.952;21.714;2023-02-18T08:19:00;16.87;;;11.07;;
43070;SDS011;36278;47.952;21.714;2023-02-18T08:21:27;13.40;;;10.13;;
43070;SDS011;36278;47.952;21.714;2023-02-18T08:23:53;13.03;;;8.63;;
43070;SDS011;36278;47.952;21.714;2023-02-18T08:26:19;10.53;;;7.90;;
43070;SDS011;36278;47.952;21.714;2023-02-18T08:28:45;9.10;;;6.87;;
43070;SDS011;36278;47.952;21.714;2023-02-18T08:31:19;8.17;;;6.20;;
43070;SDS011;36278;47.952;21.714;2023-02-18T08:33:52;6.77;;;4.50;;
43070;SDS011;36278;47.952;21.714;2023-02-18T08:36:18;6.57;;;4.60;;
43070;SDS011;36278;47.952;21.714;2023-02-18T08:38:44;7.03;;;4.70;;
43070;SDS011;36278;47.952;21.714;2023-02-18T08:41:10;6.07;;;4.43;;
43070;SDS011;36278;47.952;21.714;2023-02-18T08:43:36;5.20;;;3.60;;
43070;SDS011;36278;47.952;21.714;2023-02-18T08:46:02;4.70;;;3.50;;
43070;SDS011;36278;47.952;21.714;2023-02-18T08:48:27;7.13;;;4.43;;
43070;SDS011;36278;47.952;21.714;2023-02-18T08:50:53;5.07;;;3.40;;
43070;SDS011;36278;47.952;21.714;2023-02-18T08:53:19;5.87;;;3.60;;
43070;SDS011;36278;47.952;21.714;2023-02-18T08:55:45;4.80;;;2.70;;
43070;SDS011;36278;47.952;21.714;2023-02-18T08:58:10;5.87;;;2.80;;
43070;SDS011;36278;47.952;21.714;2023-02-18T09:00:38;4.33;;;2.50;;
43070;SDS011;36278;47.952;21.714;2023-02-18T09:03:05;5.97;;;2.97;;
43070;SDS011;36278;47.952;21.714;2023-02-18T09:05:31;2.90;;;2.30;;
43070;SDS011;36278;47.952;21.714;2023-02-18T09:07:56;4.20;;;2.50;;
43070;SDS011;36278;47.952;21.714;2023-02-18T09:10:22;3.57;;;2.47;;
43070;SDS011;36278;47.952;21.714;2023-02-18T09:12:50;5.67;;;2.60;;
43070;SDS011;36278;47.952;21.714;2023-02-18T09:15:16;3.37;;;1.97;;
43070;SDS011;36278;47.952;21.714;2023-02-18T09:17:41;4.83;;;2.73;;
43070;SDS011;36278;47.952;21.714;2023-02-18T09:20:07;6.07;;;3.00;;
43070;SDS011;36278;47.952;21.714;2023-02-18T09:22:33;4.03;;;2.53;;
43070;SDS011;36278;47.952;21.714;2023-02-18T09:24:58;4.73;;;3.03;;
43070;SDS011;36278;47.952;21.714;2023-02-18T09:27:24;4.77;;;2.67;;
43070;SDS011;36278;47.952;21.714;2023-02-18T09:29:49;4.57;;;3.13;;
43070;SDS011;36278;47.952;21.714;2023-02-18T09:32:15;4.23;;;2.63;;
43070;SDS011;36278;47.952;21.714;2023-02-18T09:34:42;3.67;;;2.53;;
43070;SDS011;36278;47.952;21.714;2023-02-18T09:37:08;6.87;;;2.97;;
43070;SDS011;36278;47.952;21.714;2023-02-18T09:39:34;7.40;;;3.50;;
43070;SDS011;36278;47.952;21.714;2023-02-18T09:42:01;5.70;;;3.33;;
43070;SDS011;36278;47.952;21.714;2023-02-18T09:44:33;4.50;;;2.97;;
43070;SDS011;36278;47.952;21.714;2023-02-18T09:49:54;3.83;;;2.97;;
43070;SDS011;36278;47.952;21.714;2023-02-18T09:52:33;6.68;;;3.38;;
43070;SDS011;36278;47.952;21.714;2023-02-18T09:55:24;3.57;;;2.50;;
43070;SDS011;36278;47.952;21.714;2023-02-18T09:58:15;4.67;;;3.13;;
43070;SDS011;36278;47.952;21.714;2023-02-18T10:00:44;4.07;;;2.80;;
43070;SDS011;36278;47.952;21.714;2023-02-18T10:03:14;4.50;;;2.57;;
43070;SDS011;36278;47.952;21.714;2023-02-18T10:05:46;5.13;;;3.43;;
43070;SDS011;36278;47.952;21.714;2023-02-18T10:08:27;5.37;;;2.57;;
43070;SDS011;36278;47.952;21.714;2023-02-18T10:10:56;4.28;;;3.00;;
43070;SDS011;36278;47.952;21.714;2023-02-18T10:13:23;3.80;;;2.60;;
43070;SDS011;36278;47.952;21.714;2023-02-18T10:15:50;5.53;;;2.90;;
43070;SDS011;36278;47.952;21.714;2023-02-18T10:21:03;4.18;;;3.00;;
43070;SDS011;36278;47.952;21.714;2023-02-18T10:23:41;6.77;;;2.90;;
43070;SDS011;36278;47.952;21.714;2023-02-18T10:26:16;4.33;;;2.93;;
43070;SDS011;36278;47.952;21.714;2023-02-18T10:28:43;6.37;;;2.80;;
43070;SDS011;36278;47.952;21.714;2023-02-18T10:31:11;5.00;;;3.20;;
43070;SDS011;36278;47.952;21.714;2023-02-18T10:33:46;4.13;;;2.88;;
43070;SDS011;36278;47.952;21.714;2023-02-18T10:36:27;5.47;;;3.40;;
43070;SDS011;36278;47.952;21.714;2023-02-18T10:44:54;6.53;;;3.60;;
43070;SDS011;36278;47.952;21.714;2023-02-18T10:50:26;7.43;;;3.03;;
43070;SDS011;36278;47.952;21.714;2023-02-18T10:52:55;3.13;;;2.20;;
43070;SDS011;36278;47.952;21.714;2023-02-18T10:55:36;3.93;;;2.50;;
43070;SDS011;36278;47.952;21.714;2023-02-18T10:58:41;4.40;;;2.13;;
43070;SDS011;36278;47.952;21.714;2023-02-18T11:01:15;6.33;;;2.27;;
43070;SDS011;36278;47.952;21.714;2023-02-18T11:06:14;2.80;;;2.07;;
43070;SDS011;36278;47.952;21.714;2023-02-18T11:08:41;5.10;;;3.30;;
43070;SDS011;36278;47.952;21.714;2023-02-18T11:11:11;2.63;;;2.17;;
43070;SDS011;36278;47.952;21.714;2023-02-18T11:13:45;3.30;;;2.20;;
43070;SDS011;36278;47.952;21.714;2023-02-18T11:16:17;3.65;;;2.25;;
43070;SDS011;36278;47.952;21.714;2023-02-18T11:18:46;2.90;;;2.20;;
43070;SDS011;36278;47.952;21.714;2023-02-18T11:21:19;2.97;;;2.20;;
43070;SDS011;36278;47.952;21.714;2023-02-18T11:23:51;6.87;;;2.20;;
43070;SDS011;36278;47.952;21.714;2023-02-18T11:26:51;2.93;;;2.20;;
43070;SDS011;36278;47.952;21.714;2023-02-18T11:29:15;5.20;;;2.27;;
43070;SDS011;36278;47.952;21.714;2023-02-18T11:31:46;4.37;;;2.53;;
43070;SDS011;36278;47.952;21.714;2023-02-18T11:34:22;6.87;;;2.40;;
43070;SDS011;36278;47.952;21.714;2023-02-18T11:36:51;5.40;;;2.30;;
43070;SDS011;36278;47.952;21.714;2023-02-18T11:41:57;2.80;;;2.00;;
43070;SDS011;36278;47.952;21.714;2023-02-18T11:44:32;3.53;;;2.20;;
43070;SDS011;36278;47.952;21.714;2023-02-18T11:47:00;2.80;;;1.90;;
43070;SDS011;36278;47.952;21.714;2023-02-18T11:49:26;3.07;;;1.80;;
43070;SDS011;36278;47.952;21.714;2023-02-18T11:51:54;2.87;;;1.80;;
43070;SDS011;36278;47.952;21.714;2023-02-18T11:54:30;2.63;;;1.60;;
43070;SDS011;36278;47.952;21.714;2023-02-18T11:56:57;4.80;;;1.57;;
43070;SDS011;36278;47.952;21.714;2023-02-18T11:59:26;2.10;;;1.30;;
43070;SDS011;36278;47.952;21.714;2023-02-18T12:01:59;2.63;;;1.53;;
43070;SDS011;36278;47.952;21.714;2023-02-18T12:04:36;2.30;;;1.47;;
43070;SDS011;36278;47.952;21.714;2023-02-18T12:07:16;3.53;;;1.60;;
43070;SDS011;36278;47.952;21.714;2023-02-18T12:10:03;2.33;;;1.33;;
43070;SDS011;36278;47.952;21.714;2023-02-18T12:12:49;2.47;;;1.53;;
43070;SDS011;36278;47.952;21.714;2023-02-18T12:15:25;2.87;;;1.60;;
43070;SDS011;36278;47.952;21.714;2023-02-18T12:26:35;2.63;;;1.37;;
43070;SDS011;36278;47.952;21.714;2023-02-18T12:35:35;4.27;;;1.73;;
43070;SDS011;36278;47.952;21.714;2023-02-18T12:41:20;2.85;;;1.05;;
43070;SDS011;36278;47.952;21.714;2023-02-18T12:44:14;1.73;;;1.00;;
43070;SDS011;36278;47.952;21.714;2023-02-18T12:46:56;2.15;;;1.35;;
43070;SDS011;36278;47.952;21.714;2023-02-18T13:14:13;3.93;;;1.30;;
43070;SDS011;36278;47.952;21.714;2023-02-18T13:16:44;1.93;;;1.20;;
43070;SDS011;36278;47.952;21.714;2023-02-18T13:21:41;3.50;;;1.80;;
43070;SDS011;36278;47.952;21.714;2023-02-18T13:24:12;1.73;;;1.27;;
43070;SDS011;36278;47.952;21.714;2023-02-18T13:26:51;3.30;;;1.47;;
43070;SDS011;36278;47.952;21.714;2023-02-18T13:29:32;4.40;;;1.97;;
43070;SDS011;36278;47.952;21.714;2023-02-18T13:37:38;3.30;;;1.80;;
43070;SDS011;36278;47.952;21.714;2023-02-18T13:40:05;3.50;;;2.20;;
43070;SDS011;36278;47.952;21.714;2023-02-18T13:42:43;5.03;;;1.93;;
43070;SDS011;36278;47.952;21.714;2023-02-18T13:45:22;3.57;;;1.90;;
43070;SDS011;36278;47.952;21.714;2023-02-18T13:47:48;2.63;;;2.00;;
43070;SDS011;36278;47.952;21.714;2023-02-18T13:53:12;2.73;;;1.90;;
43070;SDS011;36278;47.952;21.714;2023-02-18T13:58:24;5.53;;;2.10;;
43070;SDS011;36278;47.952;21.714;2023-02-18T14:08:44;2.43;;;2.10;;
43070;SDS011;36278;47.952;21.714;2023-02-18T14:16:19;4.33;;;2.57;;
43070;SDS011;36278;47.952;21.714;2023-02-18T14:33:36;3.50;;;2.40;;
43070;SDS011;36278;47.952;21.714;2023-02-18T14:41:30;2.33;;;1.50;;
43070;SDS011;36278;47.952;21.714;2023-02-18T14:49:34;5.72;;;1.60;;
43070;SDS011;36278;47.952;21.714;2023-02-18T14:52:05;3.13;;;1.60;;
43070;SDS011;36278;47.952;21.714;2023-02-18T14:57:05;3.97;;;2.00;;
43070;SDS011;36278;47.952;21.714;2023-02-18T14:59:34;2.53;;;1.80;;
43070;SDS011;36278;47.952;21.714;2023-02-18T15:02:21;4.30;;;2.53;;
43070;SDS011;36278;47.952;21.714;2023-02-18T15:04:51;4.57;;;2.88;;
43070;SDS011;36278;47.952;21.714;2023-02-18T15:07:18;3.10;;;2.00;;
43070;SDS011;36278;47.952;21.714;2023-02-18T15:09:51;4.60;;;2.37;;
43070;SDS011;36278;47.952;21.714;2023-02-18T15:12:19;7.20;;;4.53;;
43070;SDS011;36278;47.952;21.714;2023-02-18T15:14:48;4.67;;;3.03;;
43070;SDS011;36278;47.952;21.714;2023-02-18T15:17:17;3.63;;;2.40;;
43070;SDS011;36278;47.952;21.714;2023-02-18T15:19:52;2.60;;;1.90;;
43070;SDS011;36278;47.952;21.714;2023-02-18T15:22:21;6.87;;;2.20;;
43070;SDS011;36278;47.952;21.714;2023-02-18T15:24:52;2.80;;;1.73;;
43070;SDS011;36278;47.952;21.714;2023-02-18T15:27:23;4.27;;;2.10;;
43070;SDS011;36278;47.952;21.714;2023-02-18T15:30:03;3.23;;;1.80;;
43070;SDS011;36278;47.952;21.714;2023-02-18T15:32:43;2.67;;;1.60;;
43070;SDS011;36278;47.952;21.714;2023-02-18T15:35:14;2.78;;;1.77;;
43070;SDS011;36278;47.952;21.714;2023-02-18T15:37:46;3.33;;;1.90;;
43070;SDS011;36278;47.952;21.714;2023-02-18T15:40:17;2.90;;;1.90;;
43070;SDS011;36278;47.952;21.714;2023-02-18T15:42:48;4.57;;;2.67;;
43070;SDS011;36278;47.952;21.714;2023-02-18T15:45:19;2.60;;;1.42;;
43070;SDS011;36278;47.952;21.714;2023-02-18T15:47:48;2.97;;;1.60;;
43070;SDS011;36278;47.952;21.714;2023-02-18T15:50:29;3.43;;;2.00;;
43070;SDS011;36278;47.952;21.714;2023-02-18T15:53:03;3.27;;;1.73;;
43070;SDS011;36278;47.952;21.714;2023-02-18T15:58:03;3.27;;;1.50;;
43070;SDS011;36278;47.952;21.714;2023-02-18T16:00:33;1.90;;;1.60;;
43070;SDS011;36278;47.952;21.714;2023-02-18T16:03:19;4.77;;;1.80;;
43070;SDS011;36278;47.952;21.714;2023-02-18T16:05:47;5.10;;;2.10;;
43070;SDS011;36278;47.952;21.714;2023-02-18T16:08:14;2.97;;;1.80;;
43070;SDS011;36278;47.952;21.714;2023-02-18T16:10:45;3.23;;;1.60;;
43070;SDS011;36278;47.952;21.714;2023-02-18T16:13:14;1.95;;;1.38;;
43070;SDS011;36278;47.952;21.714;2023-02-18T16:15:44;1.73;;;1.60;;
43070;SDS011;36278;47.952;21.714;2023-02-18T16:18:22;1.27;;;1.03;;
43070;SDS011;36278;47.952;21.714;2023-02-18T16:20:55;2.83;;;1.70;;
43070;SDS011;36278;47.952;21.714;2023-02-18T16:23:29;3.40;;;1.50;;
43070;SDS011;36278;47.952;21.714;2023-02-18T16:26:09;2.20;;;1.57;;
43070;SDS011;36278;47.952;21.714;2023-02-18T16:28:41;3.90;;;1.70;;
43070;SDS011;36278;47.952;21.714;2023-02-18T16:31:07;2.83;;;2.00;;
43070;SDS011;36278;47.952;21.714;2023-02-18T16:33:33;3.70;;;1.70;;
43070;SDS011;36278;47.952;21.714;2023-02-18T16:35:58;3.00;;;1.57;;
43070;SDS011;36278;47.952;21.714;2023-02-18T16:38:24;4.23;;;2.13;;
43070;SDS011;36278;47.952;21.714;2023-02-18T16:40:49;2.83;;;1.77;;
43070;SDS011;36278;47.952;21.714;2023-02-18T16:43:21;2.70;;;1.90;;
43070;SDS011;36278;47.952;21.714;2023-02-18T16:45:55;2.53;;;1.90;;
43070;SDS011;36278;47.952;21.714;2023-02-18T16:48:27;5.03;;;2.20;;
43070;SDS011;36278;47.952;21.714;2023-02-18T16:50:55;2.67;;;2.10;;
43070;SDS011;36278;47.952;21.714;2023-02-18T16:53:23;4.30;;;2.13;;
43070;SDS011;36278;47.952;21.714;2023-02-18T16:55:48;5.23;;;2.63;;
43070;SDS011;36278;47.952;21.714;2023-02-18T16:58:15;7.07;;;3.60;;
43070;SDS011;36278;47.952;21.714;2023-02-18T17:00:41;5.87;;;3.50;;
43070;SDS011;36278;47.952;21.714;2023-02-18T17:03:08;4.67;;;3.10;;
43070;SDS011;36278;47.952;21.714;2023-02-18T17:05:36;4.77;;;3.00;;
43070;SDS011;36278;47.952;21.714;2023-02-18T17:10:42;5.00;;;3.47;;
43070;SDS011;36278;47.952;21.714;2023-02-18T17:13:12;5.90;;;2.90;;
43070;SDS011;36278;47.952;21.714;2023-02-18T17:15:39;7.73;;;4.20;;
43070;SDS011;36278;47.952;21.714;2023-02-18T17:18:07;8.63;;;5.73;;
43070;SDS011;36278;47.952;21.714;2023-02-18T17:20:33;6.60;;;4.00;;
43070;SDS011;36278;47.952;21.714;2023-02-18T17:22:59;5.30;;;3.37;;